createdAt,value
2018-05-27T00:00:04.868Z,62.60
2018-05-27T00:02:32.439Z,62.50
2018-05-27T00:05:00.004Z,62.40
2018-05-27T00:07:27.626Z,62.50
2018-05-27T00:09:55.157Z,62.70
2018-05-27T00:12:22.755Z,62.80
2018-05-27T00:14:50.293Z,62.80
2018-05-27T00:17:17.855Z,62.80
2018-05-27T00:19:45.469Z,62.90
2018-05-27T00:22:13.045Z,62.90
2018-05-27T00:24:40.604Z,63.00
2018-05-27T00:27:08.133Z,62.60
2018-05-27T00:29:35.695Z,62.40
2018-05-27T00:32:03.312Z,62.00
2018-05-27T00:34:30.894Z,62.10
2018-05-27T00:36:59.238Z,62.60
2018-05-27T00:39:26.763Z,62.50
2018-05-27T00:41:54.336Z,62.70
2018-05-27T00:44:21.871Z,62.90
2018-05-27T00:46:49.453Z,62.70
2018-05-27T00:49:16.984Z,62.50
2018-05-27T00:51:44.562Z,62.20
2018-05-27T00:54:12.102Z,62.20
2018-05-27T00:56:40.426Z,62.10
2018-05-27T00:59:07.951Z,62.10
2018-05-27T01:01:35.538Z,62.10
2018-05-27T01:04:03.118Z,62.30
2018-05-27T01:06:30.681Z,62.50
2018-05-27T01:08:58.209Z,62.40
2018-05-27T01:11:25.774Z,62.20
2018-05-27T01:13:53.349Z,62.10
2018-05-27T01:16:20.872Z,62.50
2018-05-27T01:18:48.447Z,62.60
2018-05-27T01:21:15.978Z,62.50
2018-05-27T01:23:43.613Z,62.90
2018-05-27T01:26:11.214Z,62.00
2018-05-27T01:28:39.557Z,62.00
2018-05-27T01:31:07.124Z,62.00
2018-05-27T01:33:35.428Z,62.70
2018-05-27T01:36:02.956Z,62.50
2018-05-27T01:38:30.523Z,62.80
2018-05-27T01:40:58.064Z,62.70
2018-05-27T01:43:25.632Z,63.00
2018-05-27T01:45:53.253Z,63.20
2018-05-27T01:48:20.814Z,63.20
2018-05-27T01:50:48.384Z,63.40
2018-05-27T01:53:15.945Z,63.40
2018-05-27T01:55:43.511Z,63.60
2018-05-27T01:58:11.048Z,63.70
2018-05-27T02:00:38.627Z,63.40
2018-05-27T02:03:06.167Z,63.20
2018-05-27T02:05:33.780Z,63.00
2018-05-27T02:08:01.353Z,62.80
2018-05-27T02:10:29.691Z,62.40
2018-05-27T02:12:57.226Z,62.40
2018-05-27T02:15:24.826Z,62.40
2018-05-27T02:17:52.410Z,62.80
2018-05-27T02:20:20.787Z,62.80
2018-05-27T02:22:49.107Z,62.50
2018-05-27T02:25:16.628Z,62.50
2018-05-27T02:27:44.977Z,62.50
2018-05-27T02:30:12.564Z,62.50
2018-05-27T02:32:40.127Z,62.70
2018-05-27T02:35:07.721Z,62.80
2018-05-27T02:37:35.279Z,62.80
2018-05-27T02:40:02.845Z,63.20
2018-05-27T02:42:30.420Z,63.10
2018-05-27T02:44:58.986Z,62.90
2018-05-27T02:47:26.566Z,62.60
2018-05-27T02:49:54.121Z,62.30
2018-05-27T02:52:21.676Z,62.40
2018-05-27T02:54:49.321Z,62.40
2018-05-27T02:57:17.626Z,62.80
2018-05-27T02:59:45.295Z,62.80
2018-05-27T03:02:13.653Z,62.70
2018-05-27T03:04:41.253Z,62.70
2018-05-27T03:07:08.828Z,62.80
2018-05-27T03:09:36.348Z,63.60
2018-05-27T03:12:03.966Z,63.20
2018-05-27T03:14:31.519Z,63.20
2018-05-27T03:16:59.125Z,63.20
2018-05-27T03:19:28.321Z,63.40
2018-05-27T03:21:55.858Z,63.30
2018-05-27T03:24:23.492Z,63.40
2018-05-27T03:26:51.052Z,63.30
2018-05-27T03:29:18.697Z,63.30
2018-05-27T03:31:46.232Z,63.30
2018-05-27T03:34:13.792Z,63.40
2018-05-27T03:36:41.327Z,63.50
2018-05-27T03:39:08.905Z,63.50
2018-05-27T03:41:36.427Z,63.30
2018-05-27T03:44:04.031Z,63.00
2018-05-27T03:46:31.564Z,63.00
2018-05-27T03:48:59.128Z,63.10
2018-05-27T03:51:26.703Z,63.10
2018-05-27T03:53:54.242Z,63.10
2018-05-27T03:56:21.825Z,63.20
2018-05-27T03:58:49.368Z,63.30
2018-05-27T04:01:16.935Z,63.10
2018-05-27T04:03:50.292Z,63.00
2018-05-27T04:09:22.773Z,62.80
2018-05-27T04:11:50.339Z,62.80
2018-05-27T04:14:17.879Z,62.90
2018-05-27T04:16:45.408Z,62.90
2018-05-27T04:19:12.976Z,62.90
2018-05-27T04:21:40.515Z,63.00
2018-05-27T04:24:08.114Z,63.00
2018-05-27T04:26:35.646Z,62.40
2018-05-27T04:29:03.235Z,62.30
2018-05-27T04:31:30.776Z,62.20
2018-05-27T04:33:58.337Z,62.40
2018-05-27T04:36:25.916Z,62.40
2018-05-27T04:38:53.480Z,62.50
2018-05-27T04:41:21.052Z,62.70
2018-05-27T04:43:48.615Z,62.80
2018-05-27T04:46:16.905Z,62.10
2018-05-27T04:48:44.538Z,62.10
2018-05-27T04:51:12.867Z,62.10
2018-05-27T04:53:40.442Z,62.10
2018-05-27T04:56:08.020Z,62.20
2018-05-27T04:58:35.557Z,62.40
2018-05-27T05:01:03.129Z,62.10
2018-05-27T05:03:30.698Z,61.90
2018-05-27T05:05:58.258Z,61.90
2018-05-27T05:08:25.799Z,62.00
2018-05-27T05:10:53.364Z,62.00
2018-05-27T05:13:20.941Z,61.90
2018-05-27T05:15:48.533Z,61.90
2018-05-27T05:18:16.128Z,61.70
2018-05-27T05:20:43.729Z,61.70
2018-05-27T05:23:11.940Z,61.80
2018-05-27T05:25:39.496Z,61.80
2018-05-27T05:28:07.131Z,61.70
2018-05-27T05:30:34.664Z,61.70
2018-05-27T05:33:02.246Z,61.60
2018-05-27T05:35:29.787Z,61.70
2018-05-27T05:37:57.393Z,61.90
2018-05-27T05:40:24.936Z,62.00
2018-05-27T05:42:52.546Z,62.00
2018-05-27T05:45:20.192Z,62.00
2018-05-27T05:47:47.762Z,62.20
2018-05-27T05:50:15.321Z,62.10
2018-05-27T05:52:42.858Z,62.10
2018-05-27T05:55:10.440Z,62.10
2018-05-27T05:57:37.977Z,62.00
2018-05-27T06:00:05.543Z,62.20
2018-05-27T06:02:33.838Z,62.30
2018-05-27T06:05:01.731Z,62.30
2018-05-27T06:07:29.297Z,62.40
2018-05-27T06:09:56.825Z,62.40
2018-05-27T06:12:24.392Z,62.60
2018-05-27T06:14:51.927Z,62.80
2018-05-27T06:17:19.503Z,62.60
2018-05-27T06:19:47.138Z,62.70
2018-05-27T06:22:15.476Z,62.90
2018-05-27T06:24:43.028Z,62.70
2018-05-27T06:27:10.602Z,62.90
2018-05-27T06:29:38.210Z,62.90
2018-05-27T06:32:05.808Z,62.90
2018-05-27T06:34:33.360Z,63.00
2018-05-27T06:37:00.907Z,63.00
2018-05-27T06:39:28.435Z,63.00
2018-05-27T06:41:56.758Z,62.70
2018-05-27T06:44:24.344Z,62.70
2018-05-27T06:46:51.980Z,62.40
2018-05-27T06:49:19.615Z,62.20
2018-05-27T06:51:47.160Z,62.10
2018-05-27T06:54:14.747Z,62.00
2018-05-27T06:56:42.313Z,62.00
2018-05-27T06:59:09.905Z,61.90
2018-05-27T07:01:37.444Z,61.70
2018-05-27T07:04:04.960Z,61.40
2018-05-27T07:06:33.306Z,61.10
2018-05-27T07:09:00.879Z,61.00
2018-05-27T07:11:29.218Z,60.60
2018-05-27T07:13:56.784Z,60.60
2018-05-27T07:19:07.068Z,60.20
2018-05-27T07:21:34.966Z,60.10
2018-05-27T07:24:02.563Z,60.00
2018-05-27T07:26:30.131Z,59.80
2018-05-27T07:28:57.694Z,59.90
2018-05-27T07:31:25.260Z,59.60
2018-05-27T07:33:52.825Z,59.40
2018-05-27T07:36:20.426Z,59.50
2018-05-27T07:38:48.929Z,59.40
2018-05-27T07:41:16.877Z,59.30
2018-05-27T07:43:45.260Z,59.60
2018-05-27T07:46:13.576Z,59.60
2018-05-27T07:48:41.147Z,59.50
2018-05-27T07:51:08.710Z,59.60
2018-05-27T07:53:36.257Z,59.50
2018-05-27T07:56:03.828Z,59.40
2018-05-27T07:58:31.467Z,59.30
2018-05-27T08:00:59.012Z,59.40
2018-05-27T08:03:26.591Z,59.40
2018-05-27T08:05:54.116Z,59.20
2018-05-27T08:08:21.718Z,59.20
2018-05-27T08:10:49.388Z,59.10
2018-05-27T08:13:16.923Z,59.00
2018-05-27T08:15:44.518Z,59.00
2018-05-27T08:18:12.079Z,59.00
2018-05-27T09:36:36.693Z,58.90
2018-05-27T09:39:04.735Z,61.60
2018-05-27T09:41:32.399Z,60.80
2018-05-27T09:43:59.987Z,59.90
2018-05-27T09:46:27.554Z,59.40
2018-05-27T09:48:55.077Z,58.90
2018-05-27T09:51:22.677Z,58.60
2018-05-27T09:53:50.216Z,58.20
2018-05-27T09:56:17.788Z,58.10
2018-05-27T09:58:45.402Z,58.00
2018-05-27T10:01:12.959Z,57.80
2018-05-27T10:03:40.522Z,57.70
2018-05-27T10:06:08.083Z,57.50
2018-05-27T10:08:35.644Z,57.50
2018-05-27T10:11:03.176Z,57.40
2018-05-27T10:13:31.568Z,57.10
2018-05-27T10:15:59.894Z,57.00
2018-05-27T10:18:27.508Z,57.00
2018-05-27T10:20:55.102Z,56.80
2018-05-27T10:23:22.676Z,56.60
2018-05-27T10:25:50.267Z,56.50
2018-05-27T10:28:17.828Z,56.40
2018-05-27T10:30:46.178Z,56.50
2018-05-27T10:33:13.733Z,56.50
2018-05-27T10:35:41.300Z,56.40
2018-05-27T10:38:08.903Z,56.20
2018-05-27T10:40:37.234Z,54.70
2018-05-27T10:43:04.879Z,54.50
2018-05-27T10:45:32.434Z,51.20
2018-05-27T10:48:00.040Z,51.50
2018-05-27T10:50:27.837Z,52.30
2018-05-27T10:52:55.385Z,51.20
2018-05-27T10:55:23.083Z,51.60
2018-05-27T10:57:50.697Z,51.50
2018-05-27T11:00:19.040Z,52.10
2018-05-27T11:02:46.632Z,52.10
2018-05-27T11:05:14.161Z,51.10
2018-05-27T11:07:41.750Z,51.50
2018-05-27T11:10:09.364Z,51.70
2018-05-27T11:12:36.924Z,51.70
2018-05-27T11:15:04.482Z,51.40
2018-05-27T11:17:32.057Z,51.30
2018-05-27T11:19:59.652Z,51.60
2018-05-27T11:22:27.179Z,52.00
2018-05-27T11:24:54.776Z,51.80
2018-05-27T11:27:22.331Z,52.00
2018-05-27T11:29:49.857Z,51.70
2018-05-27T11:32:17.439Z,51.10
2018-05-27T11:34:44.976Z,52.10
2018-05-27T11:37:12.504Z,51.30
2018-05-27T11:39:40.075Z,50.70
2018-05-27T11:42:07.657Z,50.70
2018-05-27T11:44:36.228Z,50.30
2018-05-27T11:47:03.771Z,50.50
2018-05-27T11:49:31.381Z,50.20
2018-05-27T11:51:59.012Z,50.00
2018-05-27T11:54:26.579Z,50.70
2018-05-27T11:56:54.127Z,50.80
2018-05-27T11:59:21.688Z,51.10
2018-05-27T12:01:49.301Z,50.70
2018-05-27T12:04:16.931Z,49.80
2018-05-27T12:06:44.483Z,48.70
2018-05-27T12:09:12.594Z,49.60
2018-05-27T12:11:40.868Z,50.00
2018-05-27T12:14:08.439Z,50.00
2018-05-27T12:16:36.269Z,50.00
2018-05-27T12:19:03.985Z,49.80
2018-05-27T12:21:31.624Z,49.30
2018-05-27T12:24:00.322Z,49.00
2018-05-27T12:26:28.657Z,47.00
2018-05-27T12:28:57.021Z,47.10
2018-05-27T12:31:24.600Z,47.00
2018-05-27T12:33:52.193Z,46.90
2018-05-27T12:36:19.825Z,47.00
2018-05-27T12:38:47.439Z,47.80
2018-05-27T12:41:15.078Z,47.50
2018-05-27T12:43:42.733Z,47.60
2018-05-27T12:46:11.076Z,47.60
2018-05-27T12:48:38.666Z,47.50
2018-05-27T12:51:06.355Z,47.40
2018-05-27T12:53:33.940Z,47.60
2018-05-27T12:56:01.553Z,47.80
2018-05-27T12:58:29.915Z,48.20
2018-05-27T13:00:57.490Z,48.20
2018-05-27T13:03:25.104Z,48.20
2018-05-27T13:05:52.666Z,47.70
2018-05-27T13:08:20.239Z,48.30
2018-05-27T13:10:47.864Z,48.40
2018-05-27T13:13:15.442Z,48.60
2018-05-27T13:15:42.979Z,48.60
2018-05-27T13:18:10.573Z,47.70
2018-05-27T13:20:38.138Z,47.70
2018-05-27T13:23:05.716Z,47.50
2018-05-27T13:25:33.298Z,47.30
2018-05-27T13:28:00.881Z,47.40
2018-05-27T13:30:28.470Z,47.60
2018-05-27T13:32:56.032Z,47.90
2018-05-27T13:35:23.658Z,47.40
2018-05-27T13:37:52.002Z,48.20
2018-05-27T13:40:19.646Z,48.20
2018-05-27T13:42:48.105Z,47.20
2018-05-27T13:45:15.925Z,47.20
2018-05-27T13:47:44.375Z,46.80
2018-05-27T13:50:11.924Z,46.70
2018-05-27T13:52:39.502Z,47.00
2018-05-27T13:55:07.091Z,46.80
2018-05-27T13:57:34.654Z,47.40
2018-05-27T14:00:02.984Z,47.50
2018-05-27T14:02:31.340Z,47.00
2018-05-27T14:04:58.928Z,47.00
2018-05-27T14:07:26.492Z,46.80
2018-05-27T14:09:54.086Z,46.90
2018-05-27T14:12:21.653Z,46.80
2018-05-27T14:14:49.946Z,47.60
2018-05-27T14:17:17.610Z,47.70
2018-05-27T14:19:45.208Z,47.40
2018-05-27T14:22:12.761Z,47.00
2018-05-27T14:24:40.294Z,47.10
2018-05-27T14:27:07.855Z,46.90
2018-05-27T14:29:35.416Z,47.10
2018-05-27T14:32:03.725Z,48.30
2018-05-27T14:34:31.296Z,47.80
2018-05-27T14:36:58.829Z,48.00
2018-05-27T14:39:26.406Z,47.70
2018-05-27T14:41:53.986Z,48.00
2018-05-27T14:44:21.589Z,47.60
2018-05-27T14:46:49.131Z,48.00
2018-05-27T14:49:17.465Z,48.00
2018-05-27T14:51:45.017Z,48.00
2018-05-27T14:54:12.596Z,47.90
2018-05-27T14:56:40.245Z,47.40
2018-05-27T14:59:07.869Z,47.50
2018-05-27T15:01:35.495Z,47.60
2018-05-27T15:04:03.109Z,47.60
2018-05-27T15:06:30.653Z,47.50
2018-05-27T15:08:58.227Z,47.40
2018-05-27T15:11:25.770Z,47.10
2018-05-27T15:13:53.377Z,47.30
2018-05-27T15:16:20.907Z,47.10
2018-05-27T15:18:48.455Z,47.60
2018-05-27T15:21:16.026Z,49.00
2018-05-27T15:23:43.624Z,49.20
2018-05-27T15:26:11.248Z,49.50
2018-05-27T15:28:38.788Z,50.10
2018-05-27T15:31:06.411Z,50.40
2018-05-27T15:33:34.038Z,50.50
2018-05-27T15:36:01.648Z,50.40
2018-05-27T15:38:29.946Z,50.40
2018-05-27T15:40:57.528Z,50.30
2018-05-27T15:43:25.132Z,50.80
2018-05-27T15:45:52.700Z,50.50
2018-05-27T15:48:20.269Z,50.50
2018-05-27T15:50:47.937Z,50.10
2018-05-27T15:53:16.334Z,49.70
2018-05-27T15:55:43.917Z,49.60
2018-05-27T15:58:11.576Z,49.70
2018-05-27T16:00:39.114Z,50.00
2018-05-27T16:03:06.667Z,49.90
2018-05-27T16:05:34.340Z,49.50
2018-05-27T16:08:01.948Z,49.70
2018-05-27T16:10:29.507Z,49.80
2018-05-27T16:12:57.193Z,50.00
2018-05-27T16:15:25.531Z,49.90
2018-05-27T16:17:53.097Z,49.80
2018-05-27T16:20:20.657Z,49.60
2018-05-27T16:22:48.247Z,49.60
2018-05-27T16:25:16.628Z,49.80
2018-05-27T16:27:44.990Z,49.70
2018-05-27T16:30:12.616Z,49.70
2018-05-27T16:32:40.139Z,48.30
2018-05-27T16:35:07.972Z,49.60
2018-05-27T16:37:35.874Z,49.60
2018-05-27T16:40:03.476Z,49.50
2018-05-27T16:42:31.095Z,49.90
2018-05-27T16:44:58.686Z,50.40
2018-05-27T16:47:26.307Z,50.80
2018-05-27T16:49:54.663Z,52.00
2018-05-27T16:52:22.261Z,52.00
2018-05-27T16:54:49.851Z,52.40
2018-05-27T16:57:17.434Z,52.20
2018-05-27T16:59:45.336Z,52.40
2018-05-27T17:02:13.732Z,52.90
2018-05-27T17:04:42.100Z,53.50
2018-05-27T17:07:10.433Z,54.40
2018-05-27T17:09:38.006Z,54.40
2018-05-27T17:12:05.591Z,54.30
2018-05-27T17:14:33.131Z,54.20
2018-05-27T17:17:00.728Z,54.10
2018-05-27T17:19:28.424Z,54.40
2018-05-27T17:21:55.985Z,54.40
2018-05-27T17:24:23.591Z,54.70
2018-05-27T17:26:51.955Z,54.60
2018-05-27T17:29:19.604Z,54.60
2018-05-27T17:31:48.032Z,54.70
2018-05-27T17:34:15.595Z,54.70
2018-05-27T17:36:43.241Z,54.60
2018-05-27T17:39:10.819Z,54.60
2018-05-27T17:41:39.119Z,53.40
2018-05-27T17:44:06.659Z,54.20
2018-05-27T17:46:34.321Z,54.10
2018-05-27T17:49:02.436Z,54.20
2018-05-27T17:51:31.124Z,54.10
2018-05-27T17:53:58.739Z,54.10
2018-05-27T17:56:26.306Z,53.80
2018-05-27T17:58:53.923Z,53.80
2018-05-27T18:01:21.466Z,53.80
2018-05-27T18:03:49.024Z,53.50
2018-05-27T18:06:16.579Z,53.50
2018-05-27T18:08:44.924Z,53.10
2018-05-27T18:11:12.476Z,53.50
2018-05-27T18:13:40.048Z,53.80
2018-05-27T18:16:07.631Z,53.70
2018-05-27T18:18:35.205Z,53.00
2018-05-27T18:21:02.803Z,52.60
2018-05-27T18:23:30.382Z,52.80
2018-05-27T18:25:57.970Z,53.10
2018-05-27T18:28:25.553Z,53.00
2018-05-27T18:30:53.110Z,52.90
2018-05-27T18:33:20.647Z,53.20
2018-05-27T18:35:49.487Z,53.40
2018-05-27T18:38:17.084Z,53.40
2018-05-27T18:40:44.672Z,53.60
2018-05-27T18:43:12.260Z,53.80
2018-05-27T18:45:39.854Z,53.80
2018-05-27T18:48:07.547Z,54.00
2018-05-27T18:50:35.409Z,54.20
2018-05-27T18:53:02.975Z,54.30
2018-05-27T18:55:30.548Z,54.50
2018-05-27T18:57:58.123Z,54.90
2018-05-27T19:00:25.769Z,55.00
2018-05-27T19:02:53.373Z,55.30
2018-05-27T19:05:21.683Z,56.30
2018-05-27T19:07:49.262Z,56.30
2018-05-27T19:10:16.813Z,56.10
2018-05-27T19:12:44.394Z,56.10
2018-05-27T19:15:11.961Z,56.10
2018-05-27T19:17:39.546Z,56.00
2018-05-27T19:20:07.170Z,56.10
2018-05-27T19:22:34.809Z,56.50
2018-05-27T19:25:02.385Z,56.50
2018-05-27T19:27:29.996Z,56.50
2018-05-27T19:29:58.373Z,56.90
2018-05-27T19:32:25.932Z,56.90
2018-05-27T19:34:53.509Z,56.90
2018-05-27T19:37:21.090Z,56.90
2018-05-27T19:39:48.736Z,56.80
2018-05-27T19:42:16.322Z,56.80
2018-05-27T19:44:43.925Z,57.00
2018-05-27T19:47:12.256Z,57.30
2018-05-27T19:49:39.833Z,57.30
2018-05-27T19:52:07.492Z,57.60
2018-05-27T19:54:35.105Z,57.70
2018-05-27T19:57:02.763Z,57.90
2018-05-27T19:59:30.364Z,57.90
2018-05-27T20:01:57.918Z,57.90
2018-05-27T20:04:25.525Z,57.90
2018-05-27T20:06:53.109Z,58.10
2018-05-27T20:09:20.720Z,58.10
2018-05-27T20:11:48.280Z,58.70
2018-05-27T20:14:15.866Z,58.60
2018-05-27T20:16:43.401Z,58.50
2018-05-27T20:19:10.965Z,58.50
2018-05-27T20:21:38.541Z,58.70
2018-05-27T20:24:06.107Z,58.50
2018-05-27T20:26:33.710Z,58.60
2018-05-27T20:29:01.358Z,58.60
2018-05-27T20:31:28.950Z,58.60
2018-05-27T20:33:56.596Z,58.60
2018-05-27T20:36:24.143Z,58.70
2018-05-27T20:38:51.724Z,58.80
2018-05-27T20:41:19.279Z,58.80
2018-05-27T20:43:46.892Z,58.80
2018-05-27T20:46:14.466Z,58.80
2018-05-27T20:48:42.766Z,58.90
2018-05-27T20:51:10.442Z,58.90
2018-05-27T20:53:38.060Z,59.00
2018-05-27T20:56:06.527Z,59.10
2018-05-27T20:58:34.248Z,59.00
2018-05-27T21:01:01.836Z,59.10
2018-05-27T21:03:29.448Z,59.10
2018-05-27T21:05:56.994Z,59.00
2018-05-27T21:08:25.342Z,59.90
2018-05-27T21:10:52.973Z,59.20
2018-05-27T21:13:20.568Z,59.00
2018-05-27T21:15:48.135Z,58.80
2018-05-27T21:18:15.715Z,59.00
2018-05-27T21:20:44.094Z,59.10
2018-05-27T21:23:12.409Z,59.10
2018-05-27T21:25:39.980Z,59.10
2018-05-27T21:28:07.741Z,59.20
2018-05-27T21:30:35.343Z,59.20
2018-05-27T21:33:02.889Z,59.30
2018-05-27T21:35:30.449Z,59.40
2018-05-27T21:37:58.115Z,59.40
2018-05-27T21:40:26.453Z,60.10
2018-05-27T21:42:54.068Z,60.00
2018-05-27T21:45:22.391Z,60.50
2018-05-27T21:47:49.995Z,60.60
2018-05-27T21:50:17.554Z,60.50
2018-05-27T21:52:45.178Z,61.30
2018-05-27T21:55:12.746Z,60.30
2018-05-27T21:57:40.316Z,60.80
2018-05-27T22:00:07.848Z,60.00
2018-05-27T22:02:35.408Z,59.80
2018-05-27T22:05:02.970Z,60.10
2018-05-27T22:07:30.528Z,60.20
2018-05-27T22:09:58.100Z,60.20
2018-05-27T22:12:25.656Z,60.00
2018-05-27T22:14:53.205Z,60.20
2018-05-27T22:17:20.789Z,60.60
2018-05-27T22:19:48.341Z,60.70
2018-05-27T22:22:15.886Z,61.10
2018-05-27T22:24:43.491Z,61.10
2018-05-27T22:27:11.021Z,61.20
2018-05-27T22:29:38.567Z,61.90
2018-05-27T22:32:06.141Z,60.90
2018-05-27T22:34:33.688Z,60.90
2018-05-27T22:37:01.254Z,61.00
2018-05-27T22:39:28.822Z,60.90
2018-05-27T22:41:56.393Z,60.70
2018-05-27T22:44:23.986Z,60.40
2018-05-27T22:46:51.562Z,60.20
2018-05-27T22:49:19.867Z,60.50
2018-05-27T22:51:47.440Z,60.50
2018-05-27T22:54:16.164Z,60.60
2018-05-27T22:56:43.703Z,60.60
2018-05-27T22:59:11.303Z,60.70
2018-05-27T23:01:38.878Z,60.90
2018-05-27T23:04:06.453Z,61.10
2018-05-27T23:06:33.986Z,61.50
2018-05-27T23:09:01.544Z,62.10
2018-05-27T23:11:29.072Z,61.00
2018-05-27T23:13:56.649Z,61.00
2018-05-27T23:16:24.963Z,61.20
2018-05-27T23:18:52.541Z,61.20
2018-05-27T23:21:20.072Z,61.70
2018-05-27T23:23:47.634Z,61.50
2018-05-27T23:26:15.165Z,61.40
2018-05-27T23:28:43.505Z,61.30
2018-05-27T23:31:11.103Z,61.30
2018-05-27T23:33:38.710Z,61.20
2018-05-27T23:36:06.290Z,60.90
2018-05-27T23:38:33.882Z,60.90
2018-05-27T23:41:01.447Z,60.70
2018-05-27T23:43:29.776Z,61.80
2018-05-27T23:45:57.336Z,61.00
2018-05-27T23:48:24.901Z,61.20
2018-05-27T23:50:52.464Z,61.40
2018-05-27T23:53:20.641Z,61.40
2018-05-27T23:55:48.180Z,61.60
2018-05-27T23:58:15.752Z,62.00
